sensor_id;sensor_type;location;lat;lon;timestamp;P1;durP1;ratioP1;P2;durP2;ratioP2
19780;SDS011;10050;55.492;13.506;2023-04-01T00:01:09;4.63;;;2.87;;
19780;SDS011;10050;55.492;13.506;2023-04-01T00:03:39;3.13;;;2.50;;
19780;SDS011;10050;55.492;13.506;2023-04-01T00:06:05;3.67;;;3.20;;
19780;SDS011;10050;55.492;13.506;2023-04-01T00:08:31;3.17;;;2.87;;
19780;SDS011;10050;55.492;13.506;2023-04-01T00:10:57;3.30;;;3.00;;
19780;SDS011;10050;55.492;13.506;2023-04-01T00:13:24;5.27;;;2.70;;
19780;SDS011;10050;55.492;13.506;2023-04-01T00:15:51;5.60;;;3.50;;
19780;SDS011;10050;55.492;13.506;2023-04-01T00:18:17;6.60;;;3.03;;
19780;SDS011;10050;55.492;13.506;2023-04-01T00:20:52;4.37;;;3.27;;
19780;SDS011;10050;55.492;13.506;2023-04-01T00:23:18;5.80;;;3.07;;
19780;SDS011;10050;55.492;13.506;2023-04-01T00:25:45;3.73;;;3.30;;
19780;SDS011;10050;55.492;13.506;2023-04-01T00:28:13;4.50;;;3.50;;
19780;SDS011;10050;55.492;13.506;2023-04-01T00:30:42;7.37;;;3.80;;
19780;SDS011;10050;55.492;13.506;2023-04-01T00:33:08;4.73;;;3.77;;
19780;SDS011;10050;55.492;13.506;2023-04-01T00:35:33;4.47;;;4.03;;
19780;SDS011;10050;55.492;13.506;2023-04-01T00:37:59;7.23;;;3.57;;
19780;SDS011;10050;55.492;13.506;2023-04-01T00:40:27;3.73;;;3.40;;
19780;SDS011;10050;55.492;13.506;2023-04-01T00:42:58;6.10;;;3.30;;
19780;SDS011;10050;55.492;13.506;2023-04-01T00:45:31;4.90;;;3.37;;
19780;SDS011;10050;55.492;13.506;2023-04-01T00:48:25;5.57;;;4.07;;
19780;SDS011;10050;55.492;13.506;2023-04-01T00:51:09;4.77;;;3.47;;
19780;SDS011;10050;55.492;13.506;2023-04-01T00:53:43;4.27;;;3.40;;
19780;SDS011;10050;55.492;13.506;2023-04-01T00:56:15;4.20;;;3.87;;
19780;SDS011;10050;55.492;13.506;2023-04-01T00:58:46;4.17;;;3.67;;
19780;SDS011;10050;55.492;13.506;2023-04-01T01:01:16;5.03;;;3.93;;
19780;SDS011;10050;55.492;13.506;2023-04-01T01:03:42;4.87;;;3.57;;
19780;SDS011;10050;55.492;13.506;2023-04-01T01:09:18;5.40;;;3.30;;
19780;SDS011;10050;55.492;13.506;2023-04-01T01:11:50;3.70;;;3.27;;
19780;SDS011;10050;55.492;13.506;2023-04-01T01:14:39;8.00;;;4.07;;
19780;SDS011;10050;55.492;13.506;2023-04-01T01:17:20;5.37;;;4.20;;
19780;SDS011;10050;55.492;13.506;2023-04-01T01:22:44;9.43;;;4.20;;
19780;SDS011;10050;55.492;13.506;2023-04-01T01:25:42;7.80;;;4.23;;
19780;SDS011;10050;55.492;13.506;2023-04-01T01:28:31;4.37;;;3.43;;
19780;SDS011;10050;55.492;13.506;2023-04-01T01:36:32;7.87;;;4.43;;
19780;SDS011;10050;55.492;13.506;2023-04-01T01:39:00;6.07;;;4.80;;
19780;SDS011;10050;55.492;13.506;2023-04-01T01:41:28;7.07;;;3.93;;
19780;SDS011;10050;55.492;13.506;2023-04-01T01:43:56;4.80;;;4.30;;
19780;SDS011;10050;55.492;13.506;2023-04-01T01:46:23;8.07;;;4.93;;
19780;SDS011;10050;55.492;13.506;2023-04-01T01:48:51;5.27;;;3.97;;
19780;SDS011;10050;55.492;13.506;2023-04-01T01:51:18;5.33;;;4.83;;
19780;SDS011;10050;55.492;13.506;2023-04-01T01:53:46;6.33;;;4.60;;
19780;SDS011;10050;55.492;13.506;2023-04-01T01:56:12;6.63;;;4.33;;
19780;SDS011;10050;55.492;13.506;2023-04-01T01:58:45;8.73;;;5.03;;
19780;SDS011;10050;55.492;13.506;2023-04-01T02:01:24;5.00;;;4.37;;
19780;SDS011;10050;55.492;13.506;2023-04-01T02:03:52;7.23;;;4.67;;
19780;SDS011;10050;55.492;13.506;2023-04-01T02:06:21;4.93;;;4.00;;
19780;SDS011;10050;55.492;13.506;2023-04-01T02:08:52;9.27;;;4.83;;
19780;SDS011;10050;55.492;13.506;2023-04-01T02:11:32;6.00;;;4.20;;
19780;SDS011;10050;55.492;13.506;2023-04-01T02:14:17;7.07;;;4.37;;
19780;SDS011;10050;55.492;13.506;2023-04-01T02:16:49;7.13;;;4.10;;
19780;SDS011;10050;55.492;13.506;2023-04-01T02:19:17;7.77;;;4.50;;
19780;SDS011;10050;55.492;13.506;2023-04-01T02:21:48;5.43;;;4.20;;
19780;SDS011;10050;55.492;13.506;2023-04-01T02:24:20;6.57;;;4.50;;
19780;SDS011;10050;55.492;13.506;2023-04-01T02:26:50;7.93;;;4.90;;
19780;SDS011;10050;55.492;13.506;2023-04-01T02:29:18;5.30;;;4.40;;
19780;SDS011;10050;55.492;13.506;2023-04-01T02:31:46;6.50;;;4.50;;
19780;SDS011;10050;55.492;13.506;2023-04-01T02:34:12;6.10;;;3.70;;
19780;SDS011;10050;55.492;13.506;2023-04-01T02:36:38;9.57;;;4.60;;
19780;SDS011;10050;55.492;13.506;2023-04-01T02:39:05;7.13;;;4.80;;
19780;SDS011;10050;55.492;13.506;2023-04-01T02:41:31;5.47;;;4.33;;
19780;SDS011;10050;55.492;13.506;2023-04-01T02:44:03;8.37;;;4.63;;
19780;SDS011;10050;55.492;13.506;2023-04-01T02:46:29;4.50;;;4.07;;
19780;SDS011;10050;55.492;13.506;2023-04-01T02:48:55;8.00;;;4.57;;
19780;SDS011;10050;55.492;13.506;2023-04-01T02:51:20;5.67;;;4.20;;
19780;SDS011;10050;55.492;13.506;2023-04-01T02:53:46;4.27;;;3.67;;
19780;SDS011;10050;55.492;13.506;2023-04-01T02:56:11;4.43;;;4.03;;
19780;SDS011;10050;55.492;13.506;2023-04-01T02:58:37;11.10;;;4.30;;
19780;SDS011;10050;55.492;13.506;2023-04-01T03:01:03;6.40;;;3.60;;
19780;SDS011;10050;55.492;13.506;2023-04-01T03:03:28;7.07;;;4.37;;
19780;SDS011;10050;55.492;13.506;2023-04-01T03:05:54;7.10;;;4.27;;
19780;SDS011;10050;55.492;13.506;2023-04-01T03:08:25;5.03;;;3.93;;
19780;SDS011;10050;55.492;13.506;2023-04-01T03:10:50;5.50;;;3.60;;
19780;SDS011;10050;55.492;13.506;2023-04-01T03:13:16;6.90;;;3.93;;
19780;SDS011;10050;55.492;13.506;2023-04-01T03:15:42;5.33;;;4.13;;
19780;SDS011;10050;55.492;13.506;2023-04-01T03:18:07;4.50;;;3.80;;
19780;SDS011;10050;55.492;13.506;2023-04-01T03:20:33;7.60;;;4.10;;
19780;SDS011;10050;55.492;13.506;2023-04-01T03:22:59;5.13;;;3.67;;
19780;SDS011;10050;55.492;13.506;2023-04-01T03:25:24;8.87;;;4.10;;
19780;SDS011;10050;55.492;13.506;2023-04-01T03:27:57;6.13;;;3.47;;
19780;SDS011;10050;55.492;13.506;2023-04-01T03:30:24;4.93;;;4.40;;
19780;SDS011;10050;55.492;13.506;2023-04-01T03:32:56;7.07;;;4.40;;
19780;SDS011;10050;55.492;13.506;2023-04-01T03:35:22;5.03;;;3.60;;
19780;SDS011;10050;55.492;13.506;2023-04-01T03:37:49;5.33;;;3.80;;
19780;SDS011;10050;55.492;13.506;2023-04-01T03:40:16;4.23;;;3.70;;
19780;SDS011;10050;55.492;13.506;2023-04-01T03:42:42;7.53;;;3.90;;
19780;SDS011;10050;55.492;13.506;2023-04-01T03:45:07;8.43;;;3.93;;
19780;SDS011;10050;55.492;13.506;2023-04-01T03:47:34;4.67;;;3.63;;
19780;SDS011;10050;55.492;13.506;2023-04-01T03:50:00;4.07;;;3.53;;
19780;SDS011;10050;55.492;13.506;2023-04-01T03:52:26;9.77;;;4.00;;
19780;SDS011;10050;55.492;13.506;2023-04-01T03:54:51;7.70;;;4.10;;
19780;SDS011;10050;55.492;13.506;2023-04-01T03:57:20;6.03;;;3.93;;
19780;SDS011;10050;55.492;13.506;2023-04-01T03:59:45;4.70;;;3.80;;
19780;SDS011;10050;55.492;13.506;2023-04-01T04:02:11;6.93;;;3.57;;
19780;SDS011;10050;55.492;13.506;2023-04-01T04:04:36;3.53;;;3.23;;
19780;SDS011;10050;55.492;13.506;2023-04-01T04:07:04;4.50;;;3.37;;
19780;SDS011;10050;55.492;13.506;2023-04-01T04:09:30;6.27;;;3.73;;
19780;SDS011;10050;55.492;13.506;2023-04-01T04:11:56;5.07;;;3.60;;
19780;SDS011;10050;55.492;13.506;2023-04-01T04:14:22;6.53;;;3.83;;
19780;SDS011;10050;55.492;13.506;2023-04-01T04:16:48;3.80;;;3.27;;
19780;SDS011;10050;55.492;13.506;2023-04-01T04:19:14;4.67;;;3.63;;
19780;SDS011;10050;55.492;13.506;2023-04-01T04:21:40;4.93;;;3.60;;
19780;SDS011;10050;55.492;13.506;2023-04-01T04:24:08;4.80;;;3.70;;
19780;SDS011;10050;55.492;13.506;2023-04-01T04:26:34;6.00;;;3.80;;
19780;SDS011;10050;55.492;13.506;2023-04-01T04:29:00;7.27;;;3.93;;
19780;SDS011;10050;55.492;13.506;2023-04-01T04:31:26;5.87;;;3.90;;
19780;SDS011;10050;55.492;13.506;2023-04-01T04:33:52;4.00;;;3.60;;
19780;SDS011;10050;55.492;13.506;2023-04-01T04:36:20;5.17;;;3.07;;
19780;SDS011;10050;55.492;13.506;2023-04-01T04:38:46;4.60;;;3.23;;
19780;SDS011;10050;55.492;13.506;2023-04-01T04:41:13;4.80;;;3.40;;
19780;SDS011;10050;55.492;13.506;2023-04-01T04:43:47;5.27;;;3.33;;
19780;SDS011;10050;55.492;13.506;2023-04-01T04:46:15;6.97;;;3.33;;
19780;SDS011;10050;55.492;13.506;2023-04-01T04:48:41;5.97;;;3.60;;
19780;SDS011;10050;55.492;13.506;2023-04-01T04:51:11;5.57;;;3.47;;
19780;SDS011;10050;55.492;13.506;2023-04-01T04:53:43;4.77;;;3.30;;
19780;SDS011;10050;55.492;13.506;2023-04-01T04:56:09;6.30;;;3.33;;
19780;SDS011;10050;55.492;13.506;2023-04-01T04:58:38;5.73;;;3.80;;
19780;SDS011;10050;55.492;13.506;2023-04-01T05:01:08;4.70;;;3.70;;
19780;SDS011;10050;55.492;13.506;2023-04-01T05:03:37;5.07;;;3.03;;
19780;SDS011;10050;55.492;13.506;2023-04-01T05:06:03;6.60;;;3.37;;
19780;SDS011;10050;55.492;13.506;2023-04-01T05:08:31;8.13;;;3.50;;
19780;SDS011;10050;55.492;13.506;2023-04-01T05:10:58;4.60;;;2.90;;
19780;SDS011;10050;55.492;13.506;2023-04-01T05:13:24;4.20;;;3.43;;
19780;SDS011;10050;55.492;13.506;2023-04-01T05:15:50;6.10;;;3.73;;
19780;SDS011;10050;55.492;13.506;2023-04-01T05:18:15;3.90;;;2.90;;
19780;SDS011;10050;55.492;13.506;2023-04-01T05:20:59;5.10;;;3.23;;
19780;SDS011;10050;55.492;13.506;2023-04-01T05:23:25;4.63;;;3.50;;
19780;SDS011;10050;55.492;13.506;2023-04-01T05:25:51;6.50;;;3.40;;
19780;SDS011;10050;55.492;13.506;2023-04-01T05:28:18;4.07;;;2.93;;
19780;SDS011;10050;55.492;13.506;2023-04-01T05:30:45;4.33;;;3.10;;
19780;SDS011;10050;55.492;13.506;2023-04-01T05:33:11;5.20;;;3.37;;
19780;SDS011;10050;55.492;13.506;2023-04-01T05:35:38;5.23;;;2.37;;
19780;SDS011;10050;55.492;13.506;2023-04-01T05:38:04;5.00;;;3.37;;
19780;SDS011;10050;55.492;13.506;2023-04-01T05:40:31;4.77;;;2.77;;
19780;SDS011;10050;55.492;13.506;2023-04-01T05:42:57;4.80;;;2.90;;
19780;SDS011;10050;55.492;13.506;2023-04-01T05:45:23;4.03;;;2.80;;
19780;SDS011;10050;55.492;13.506;2023-04-01T05:47:49;3.43;;;3.00;;
19780;SDS011;10050;55.492;13.506;2023-04-01T05:50:18;4.57;;;3.10;;
19780;SDS011;10050;55.492;13.506;2023-04-01T05:52:44;5.10;;;2.97;;
19780;SDS011;10050;55.492;13.506;2023-04-01T05:55:10;5.47;;;2.90;;
19780;SDS011;10050;55.492;13.506;2023-04-01T05:57:36;4.87;;;3.20;;
19780;SDS011;10050;55.492;13.506;2023-04-01T06:00:04;4.80;;;2.87;;
19780;SDS011;10050;55.492;13.506;2023-04-01T06:02:31;5.40;;;3.33;;
19780;SDS011;10050;55.492;13.506;2023-04-01T06:05:02;5.63;;;3.20;;
19780;SDS011;10050;55.492;13.506;2023-04-01T06:07:36;3.63;;;2.50;;
19780;SDS011;10050;55.492;13.506;2023-04-01T06:10:05;6.97;;;2.47;;
19780;SDS011;10050;55.492;13.506;2023-04-01T06:15:35;3.83;;;2.47;;
19780;SDS011;10050;55.492;13.506;2023-04-01T06:24:04;4.00;;;2.50;;
19780;SDS011;10050;55.492;13.506;2023-04-01T06:29:18;2.47;;;2.27;;
19780;SDS011;10050;55.492;13.506;2023-04-01T06:32:01;3.67;;;2.87;;
19780;SDS011;10050;55.492;13.506;2023-04-01T06:46:04;2.67;;;1.93;;
19780;SDS011;10050;55.492;13.506;2023-04-01T06:54:48;2.07;;;1.40;;
19780;SDS011;10050;55.492;13.506;2023-04-01T06:59:49;3.17;;;2.10;;
19780;SDS011;10050;55.492;13.506;2023-04-01T07:02:20;2.50;;;1.90;;
19780;SDS011;10050;55.492;13.506;2023-04-01T07:04:56;2.20;;;1.87;;
19780;SDS011;10050;55.492;13.506;2023-04-01T07:10:10;6.10;;;2.10;;
19780;SDS011;10050;55.492;13.506;2023-04-01T07:12:46;4.50;;;1.93;;
19780;SDS011;10050;55.492;13.506;2023-04-01T07:15:20;2.73;;;1.90;;
19780;SDS011;10050;55.492;13.506;2023-04-01T07:18:01;1.90;;;1.77;;
19780;SDS011;10050;55.492;13.506;2023-04-01T07:20:36;4.70;;;1.57;;
19780;SDS011;10050;55.492;13.506;2023-04-01T07:23:08;2.50;;;1.47;;
19780;SDS011;10050;55.492;13.506;2023-04-01T07:28:46;3.47;;;1.87;;
19780;SDS011;10050;55.492;13.506;2023-04-01T07:31:18;4.73;;;2.10;;
19780;SDS011;10050;55.492;13.506;2023-04-01T07:36:50;2.63;;;1.60;;
19780;SDS011;10050;55.492;13.506;2023-04-01T07:42:01;4.50;;;1.83;;
19780;SDS011;10050;55.492;13.506;2023-04-01T07:50:38;2.40;;;1.70;;
19780;SDS011;10050;55.492;13.506;2023-04-01T07:58:31;2.60;;;1.50;;
19780;SDS011;10050;55.492;13.506;2023-04-01T08:04:17;2.53;;;1.67;;
19780;SDS011;10050;55.492;13.506;2023-04-01T08:12:04;2.10;;;1.40;;
19780;SDS011;10050;55.492;13.506;2023-04-01T08:17:34;2.23;;;1.67;;
19780;SDS011;10050;55.492;13.506;2023-04-01T08:23:19;1.80;;;1.27;;
19780;SDS011;10050;55.492;13.506;2023-04-01T08:25:51;1.57;;;1.47;;
19780;SDS011;10050;55.492;13.506;2023-04-01T08:31:12;4.20;;;2.33;;
19780;SDS011;10050;55.492;13.506;2023-04-01T08:33:44;1.80;;;1.67;;
19780;SDS011;10050;55.492;13.506;2023-04-01T08:36:16;2.20;;;1.70;;
19780;SDS011;10050;55.492;13.506;2023-04-01T08:38:57;1.57;;;1.47;;
19780;SDS011;10050;55.492;13.506;2023-04-01T08:41:44;2.03;;;1.43;;
19780;SDS011;10050;55.492;13.506;2023-04-01T09:04:24;2.07;;;1.67;;
19780;SDS011;10050;55.492;13.506;2023-04-01T09:07:28;2.87;;;1.70;;
19780;SDS011;10050;55.492;13.506;2023-04-01T09:27:03;1.57;;;1.20;;
19780;SDS011;10050;55.492;13.506;2023-04-01T09:32:52;3.83;;;1.50;;
19780;SDS011;10050;55.492;13.506;2023-04-01T09:35:49;1.37;;;1.27;;
19780;SDS011;10050;55.492;13.506;2023-04-01T09:41:45;3.27;;;1.23;;
19780;SDS011;10050;55.492;13.506;2023-04-01T10:09:27;2.63;;;1.33;;
19780;SDS011;10050;55.492;13.506;2023-04-01T10:15:33;3.20;;;1.40;;
19780;SDS011;10050;55.492;13.506;2023-04-01T10:26:53;2.30;;;0.87;;
19780;SDS011;10050;55.492;13.506;2023-04-01T10:41:29;1.80;;;1.10;;
19780;SDS011;10050;55.492;13.506;2023-04-01T10:44:37;1.20;;;1.03;;
19780;SDS011;10050;55.492;13.506;2023-04-01T11:09:19;0.83;;;0.83;;
19780;SDS011;10050;55.492;13.506;2023-04-01T11:26:32;1.00;;;0.97;;
19780;SDS011;10050;55.492;13.506;2023-04-01T11:45:26;1.50;;;1.40;;
19780;SDS011;10050;55.492;13.506;2023-04-01T11:48:13;1.10;;;1.10;;
19780;SDS011;10050;55.492;13.506;2023-04-01T11:51:16;1.43;;;1.20;;
19780;SDS011;10050;55.492;13.506;2023-04-01T11:54:06;1.70;;;1.00;;
19780;SDS011;10050;55.492;13.506;2023-04-01T12:10:40;1.67;;;1.10;;
19780;SDS011;10050;55.492;13.506;2023-04-01T12:13:19;2.07;;;1.27;;
19780;SDS011;10050;55.492;13.506;2023-04-01T12:21:37;3.27;;;1.10;;
19780;SDS011;10050;55.492;13.506;2023-04-01T12:26:43;1.70;;;0.90;;
19780;SDS011;10050;55.492;13.506;2023-04-01T12:32:15;3.87;;;1.23;;
19780;SDS011;10050;55.492;13.506;2023-04-01T12:38:04;0.83;;;0.80;;
19780;SDS011;10050;55.492;13.506;2023-04-01T12:57:48;1.00;;;0.97;;
19780;SDS011;10050;55.492;13.506;2023-04-01T13:11:16;1.73;;;1.03;;
19780;SDS011;10050;55.492;13.506;2023-04-01T13:14:04;1.50;;;1.40;;
19780;SDS011;10050;55.492;13.506;2023-04-01T13:16:57;2.60;;;0.87;;
19780;SDS011;10050;55.492;13.506;2023-04-01T13:19:54;1.17;;;0.90;;
19780;SDS011;10050;55.492;13.506;2023-04-01T13:27:44;1.13;;;0.90;;
19780;SDS011;10050;55.492;13.506;2023-04-01T13:32:50;5.17;;;1.30;;
19780;SDS011;10050;55.492;13.506;2023-04-01T13:38:32;1.30;;;1.20;;
19780;SDS011;10050;55.492;13.506;2023-04-01T13:44:59;4.37;;;1.03;;
19780;SDS011;10050;55.492;13.506;2023-04-01T13:53:23;1.63;;;0.87;;
19780;SDS011;10050;55.492;13.506;2023-04-01T14:10:46;1.17;;;0.90;;
19780;SDS011;10050;55.492;13.506;2023-04-01T14:16:44;0.90;;;0.90;;
19780;SDS011;10050;55.492;13.506;2023-04-01T14:19:26;2.67;;;1.07;;
19780;SDS011;10050;55.492;13.506;2023-04-01T14:35:35;0.80;;;0.80;;
19780;SDS011;10050;55.492;13.506;2023-04-01T14:48:49;2.93;;;0.93;;
19780;SDS011;10050;55.492;13.506;2023-04-01T14:51:31;1.00;;;1.00;;
19780;SDS011;10050;55.492;13.506;2023-04-01T14:54:04;1.30;;;1.00;;
19780;SDS011;10050;55.492;13.506;2023-04-01T14:56:44;1.47;;;0.97;;
19780;SDS011;10050;55.492;13.506;2023-04-01T15:01:50;1.33;;;1.27;;
19780;SDS011;10050;55.492;13.506;2023-04-01T15:24:28;2.87;;;1.30;;
19780;SDS011;10050;55.492;13.506;2023-04-01T15:27:10;1.10;;;1.00;;
19780;SDS011;10050;55.492;13.506;2023-04-01T15:30:14;0.83;;;0.83;;
19780;SDS011;10050;55.492;13.506;2023-04-01T15:36:00;1.40;;;1.17;;
19780;SDS011;10050;55.492;13.506;2023-04-01T15:38:49;1.10;;;1.10;;
19780;SDS011;10050;55.492;13.506;2023-04-01T15:44:00;1.30;;;1.20;;
19780;SDS011;10050;55.492;13.506;2023-04-01T15:52:10;1.27;;;1.17;;
19780;SDS011;10050;55.492;13.506;2023-04-01T15:54:59;1.53;;;1.03;;
19780;SDS011;10050;55.492;13.506;2023-04-01T16:02:47;1.10;;;1.10;;
19780;SDS011;10050;55.492;13.506;2023-04-01T16:08:17;2.00;;;1.20;;
19780;SDS011;10050;55.492;13.506;2023-04-01T16:14:02;1.53;;;1.30;;
19780;SDS011;10050;55.492;13.506;2023-04-01T16:33:37;1.07;;;0.97;;
19780;SDS011;10050;55.492;13.506;2023-04-01T16:36:17;1.40;;;1.17;;
19780;SDS011;10050;55.492;13.506;2023-04-01T16:39:06;1.73;;;1.30;;
19780;SDS011;10050;55.492;13.506;2023-04-01T16:41:57;2.40;;;1.30;;
19780;SDS011;10050;55.492;13.506;2023-04-01T16:44:30;3.60;;;1.23;;
19780;SDS011;10050;55.492;13.506;2023-04-01T16:47:10;1.30;;;1.07;;
19780;SDS011;10050;55.492;13.506;2023-04-01T16:49:42;2.63;;;1.00;;
19780;SDS011;10050;55.492;13.506;2023-04-01T16:52:17;2.87;;;1.20;;
19780;SDS011;10050;55.492;13.506;2023-04-01T16:55:08;4.27;;;1.20;;
19780;SDS011;10050;55.492;13.506;2023-04-01T17:08:08;1.30;;;1.20;;
19780;SDS011;10050;55.492;13.506;2023-04-01T17:10:51;1.50;;;1.17;;
19780;SDS011;10050;55.492;13.506;2023-04-01T17:13:33;3.23;;;1.17;;
19780;SDS011;10050;55.492;13.506;2023-04-01T17:24:42;2.00;;;1.40;;
19780;SDS011;10050;55.492;13.506;2023-04-01T17:27:15;1.47;;;1.37;;
19780;SDS011;10050;55.492;13.506;2023-04-01T17:49:23;3.63;;;1.27;;
19780;SDS011;10050;55.492;13.506;2023-04-01T17:52:30;2.73;;;1.10;;
19780;SDS011;10050;55.492;13.506;2023-04-01T17:57:48;1.70;;;1.10;;
19780;SDS011;10050;55.492;13.506;2023-04-01T18:14:11;2.13;;;1.27;;
19780;SDS011;10050;55.492;13.506;2023-04-01T18:22:21;3.93;;;1.30;;
19780;SDS011;10050;55.492;13.506;2023-04-01T18:27:39;1.20;;;1.10;;
19780;SDS011;10050;55.492;13.506;2023-04-01T18:30:20;2.80;;;1.10;;
19780;SDS011;10050;55.492;13.506;2023-04-01T18:35:47;2.57;;;1.40;;
19780;SDS011;10050;55.492;13.506;2023-04-01T18:38:27;1.50;;;1.17;;
19780;SDS011;10050;55.492;13.506;2023-04-01T18:41:12;1.30;;;1.17;;
19780;SDS011;10050;55.492;13.506;2023-04-01T18:49:20;1.63;;;1.10;;
19780;SDS011;10050;55.492;13.506;2023-04-01T18:51:57;2.40;;;1.33;;
19780;SDS011;10050;55.492;13.506;2023-04-01T19:03:18;2.47;;;1.20;;
19780;SDS011;10050;55.492;13.506;2023-04-01T19:05:53;4.33;;;1.00;;
19780;SDS011;10050;55.492;13.506;2023-04-01T19:08:29;1.10;;;1.10;;
19780;SDS011;10050;55.492;13.506;2023-04-01T19:19:17;2.00;;;1.30;;
19780;SDS011;10050;55.492;13.506;2023-04-01T19:24:22;2.27;;;1.40;;
19780;SDS011;10050;55.492;13.506;2023-04-01T19:29:52;1.17;;;1.07;;
19780;SDS011;10050;55.492;13.506;2023-04-01T19:35:13;1.30;;;1.20;;
19780;SDS011;10050;55.492;13.506;2023-04-01T19:38:10;2.30;;;1.30;;
19780;SDS011;10050;55.492;13.506;2023-04-01T19:41:04;1.40;;;1.40;;
19780;SDS011;10050;55.492;13.506;2023-04-01T19:43:50;1.53;;;1.30;;
19780;SDS011;10050;55.492;13.506;2023-04-01T19:46:28;2.07;;;1.20;;
19780;SDS011;10050;55.492;13.506;2023-04-01T19:54:24;1.47;;;1.37;;
19780;SDS011;10050;55.492;13.506;2023-04-01T20:02:58;1.00;;;1.00;;
19780;SDS011;10050;55.492;13.506;2023-04-01T20:11:11;0.90;;;0.90;;
19780;SDS011;10050;55.492;13.506;2023-04-01T20:16:17;1.23;;;0.90;;
19780;SDS011;10050;55.492;13.506;2023-04-01T20:18:56;1.13;;;0.87;;
19780;SDS011;10050;55.492;13.506;2023-04-01T20:26:40;1.13;;;0.80;;
19780;SDS011;10050;55.492;13.506;2023-04-01T20:32:54;0.70;;;0.70;;
19780;SDS011;10050;55.492;13.506;2023-04-01T20:41:11;1.43;;;0.70;;
19780;SDS011;10050;55.492;13.506;2023-04-01T20:52:02;0.50;;;0.50;;
19780;SDS011;10050;55.492;13.506;2023-04-01T20:57:50;1.07;;;0.70;;
19780;SDS011;10050;55.492;13.506;2023-04-01T21:40:11;0.80;;;0.80;;
19780;SDS011;10050;55.492;13.506;2023-04-01T22:05:16;0.93;;;0.80;;
19780;SDS011;10050;55.492;13.506;2023-04-01T22:10:54;0.87;;;0.80;;
19780;SDS011;10050;55.492;13.506;2023-04-01T22:13:48;0.70;;;0.70;;
19780;SDS011;10050;55.492;13.506;2023-04-01T22:19:15;0.73;;;0.73;;
19780;SDS011;10050;55.492;13.506;2023-04-01T22:29:58;0.63;;;0.63;;
19780;SDS011;10050;55.492;13.506;2023-04-01T22:32:45;0.70;;;0.70;;
19780;SDS011;10050;55.492;13.506;2023-04-01T22:38:00;0.70;;;0.70;;
19780;SDS011;10050;55.492;13.506;2023-04-01T22:40:41;0.53;;;0.53;;
19780;SDS011;10050;55.492;13.506;2023-04-01T22:43:21;2.97;;;0.80;;
19780;SDS011;10050;55.492;13.506;2023-04-01T22:46:02;0.67;;;0.67;;
19780;SDS011;10050;55.492;13.506;2023-04-01T22:51:39;0.60;;;0.60;;
19780;SDS011;10050;55.492;13.506;2023-04-01T22:54:31;0.97;;;0.77;;
19780;SDS011;10050;55.492;13.506;2023-04-01T22:57:02;0.77;;;0.77;;
19780;SDS011;10050;55.492;13.506;2023-04-01T23:02:33;2.63;;;0.60;;
19780;SDS011;10050;55.492;13.506;2023-04-01T23:05:05;0.70;;;0.70;;
19780;SDS011;10050;55.492;13.506;2023-04-01T23:10:20;0.70;;;0.70;;
19780;SDS011;10050;55.492;13.506;2023-04-01T23:12:47;0.83;;;0.83;;
19780;SDS011;10050;55.492;13.506;2023-04-01T23:15:16;0.70;;;0.70;;
19780;SDS011;10050;55.492;13.506;2023-04-01T23:17:47;0.73;;;0.73;;
19780;SDS011;10050;55.492;13.506;2023-04-01T23:25:43;0.80;;;0.80;;
19780;SDS011;10050;55.492;13.506;2023-04-01T23:33:49;0.40;;;0.40;;
19780;SDS011;10050;55.492;13.506;2023-04-01T23:36:00;0.60;;;0.60;;
19780;SDS011;10050;55.492;13.506;2023-04-01T23:38:38;0.80;;;0.80;;
19780;SDS011;10050;55.492;13.506;2023-04-01T23:41:28;0.70;;;0.70;;
19780;SDS011;10050;55.492;13.506;2023-04-01T23:44:05;0.60;;;0.60;;
19780;SDS011;10050;55.492;13.506;2023-04-01T23:46:44;0.60;;;0.60;;
19780;SDS011;10050;55.492;13.506;2023-04-01T23:49:17;0.70;;;0.70;;
19780;SDS011;10050;55.492;13.506;2023-04-01T23:52:21;0.53;;;0.53;;
19780;SDS011;10050;55.492;13.506;2023-04-01T23:54:55;0.97;;;0.63;;
19780;SDS011;10050;55.492;13.506;2023-04-01T23:57:32;0.60;;;0.60;;
